LPPDLPAZ

Guest
Details From LPPD - Ponta Delgada
To LPAZ - Santa Maria
Flight Number -
Tags Standard
Created
Modified
Stats Distance 53 nm / 98 km
Max Altitude 100 ft / 30 m
Waypoints 8
Social Downloads 10
Likes 0
Share

Download

Looking for another format? Having issues loading an existing format? Contact us
Advertisement - Login to hide

Notes

None

Route

LPPD +37.71_-025.60 +37.67_-025.55 +37.62_-025.51 +37.36_-025.37 +37.11_-025.22 +37.06_-025.19 LPAZ

ID Type Via Altitude (ft/m) Position (lat/lon) Dist (leg/tot) Name
O LPPD APT - 0 / 0 37.73792 / -25.68457 - / 0 nm
+37.71_-025.60 LATLON - 100 / 30 37.71103 / -25.59963 4 / 4 nm
+37.67_-025.55 LATLON - 100 / 30 37.67244 / -25.54510 3 / 7 nm
+37.62_-025.51 LATLON - 100 / 30 37.62142 / -25.51055 3 / 11 nm
+37.36_-025.37 LATLON - 100 / 30 37.36425 / -25.36667 16 / 28 nm
+37.11_-025.22 LATLON - 100 / 30 37.10708 / -25.22279 16 / 45 nm
+37.06_-025.19 LATLON - 100 / 30 37.05647 / -25.18757 3 / 48 nm
O LPAZ APT - 0 / 0 36.98500 / -25.17333 4 / 52 nm

Altitude Profile

Advertisement - Login to hide

LPPD

Details ICAO LPPD (PDL)
Name Ponta Delgada
Region Portugal
Timezone Atlantic/Azores (UTC+0.0)
Stats Elevation 259 ft / 79 m (AMSL)
Location 37.742000° -25.697600°
Runways 1
Magnetic Variation 7.869° W

METAR

LPPD 121700Z 24006KT 9999 FEW016 SCT035 22/17 Q1026

Decode

TAF

TAF TAF LPPD 121100Z 1212/1312 22008KT 9999 FEW018 SCT035 BECMG 1218/1220 VRB05KT BECMG 1303/1306 03008KT BECMG 1310/1312 VRB05KT

Decode

Departure Runways

ID Width Length Bearing (true/mag) Surface Threshold Overrun Markings Lighting
12 148 ft / 45 m 8,243 ft / 2,513 m 111.69° / 119.56° ASPHALT 102 ft / 31 m 0 ft / 0 m PREC-APP CENTERLINE EDGE THRESHOLD MALS REIL-OMNI
30 148 ft / 45 m 8,243 ft / 2,513 m 291.71° / 299.58° ASPHALT 784 ft / 239 m 0 ft / 0 m PREC-APP CENTERLINE EDGE THRESHOLD ALSF-I

LPAZ

Details ICAO LPAZ (SMA)
Name SANTA MARIA
Region Portugal
Timezone Atlantic/Azores (UTC+0.0)
Stats Elevation 308 ft / 94 m (AMSL)
Location 36.972100° -25.170700°
Runways 1
Magnetic Variation 7.650° W

METAR

LPAZ 121700Z 34003KT 300V030 3000 -SHRA BR FEW012 BKN020 20/18 Q1026

Decode

TAF

TAF TAF LPAZ 121100Z 1212/1318 VRB05KT 9999 FEW012 SCT030 BECMG 1303/1306 03008KT

Decode

Destination Runways

ID Width Length Bearing (true/mag) Surface Threshold Overrun Markings Lighting
18 197 ft / 60 m 10,035 ft / 3,059 m 171.10° / 178.75° CONCRETE 0 ft / 0 m 981 ft / 299 m PREC-APP EDGE THRESHOLD ALSF-I
36 197 ft / 60 m 10,035 ft / 3,059 m 351.11° / 358.76° CONCRETE 0 ft / 0 m 1,007 ft / 307 m PREC-APP EDGE THRESHOLD ALSF-I

Approach Navaids

Runway Type Ident Frequency Range Bearing (true/mag) Slope Elevation
18 LOC-ILS MA 110.30 MHz 18 nm / 33 km 171.11° / 178.76 ° - 308 ft / 94 m (AMSL)
18 GS MA 110.30 MHz 10 nm / 19 km 171.11° / 178.76 ° 2.75° 308 ft / 94 m (AMSL)
18 MM MM - - 170.97° / 178.62 ° - 308 ft / 94 m (AMSL)

Popular Alternatives